createdAt,value
2018-08-03T00:03:39.053Z,24.40
2018-08-03T00:08:34.231Z,24.40
2018-08-03T00:13:29.358Z,24.30
2018-08-03T00:18:24.439Z,24.30
2018-08-03T00:23:19.246Z,24.20
2018-08-03T00:28:13.792Z,24.10
2018-08-03T00:33:08.291Z,24.10
2018-08-03T00:38:02.792Z,24.00
2018-08-03T00:42:57.382Z,24.00
2018-08-03T00:47:52.193Z,23.90
2018-08-03T00:52:47.472Z,23.90
2018-08-03T00:57:42.109Z,23.80
2018-08-03T01:02:36.742Z,23.80
2018-08-03T01:07:31.250Z,23.70
2018-08-03T01:12:25.928Z,23.60
2018-08-03T01:17:20.566Z,23.60
2018-08-03T01:22:16.454Z,23.60
2018-08-03T01:27:11.332Z,23.40
2018-08-03T01:32:05.952Z,23.40
2018-08-03T01:37:00.671Z,23.20
2018-08-03T01:41:55.330Z,23.10
2018-08-03T01:46:50.135Z,23.00
2018-08-03T01:51:44.733Z,23.00
2018-08-03T01:56:39.255Z,22.90
2018-08-03T02:01:34.022Z,22.80
2018-08-03T02:06:29.074Z,22.80
2018-08-03T02:11:23.587Z,22.70
2018-08-03T02:16:18.064Z,22.70
2018-08-03T02:21:12.617Z,22.60
2018-08-03T02:26:07.112Z,22.50
2018-08-03T02:31:01.591Z,22.40
2018-08-03T02:35:56.680Z,22.40
2018-08-03T02:40:51.167Z,22.40
2018-08-03T02:45:45.674Z,22.30
2018-08-03T02:50:40.160Z,22.30
2018-08-03T02:55:34.689Z,22.20
2018-08-03T03:00:29.138Z,22.10
2018-08-03T03:05:23.697Z,22.00
2018-08-03T03:10:18.308Z,22.10
2018-08-03T03:15:12.836Z,22.10
2018-08-03T03:20:07.342Z,22.00
2018-08-03T03:25:01.910Z,22.00
2018-08-03T03:29:56.881Z,21.90
2018-08-03T03:34:51.552Z,21.90
2018-08-03T03:39:46.054Z,21.90
2018-08-03T03:44:40.571Z,21.80
2018-08-03T03:49:35.147Z,21.80
2018-08-03T03:54:30.023Z,21.80
2018-08-03T03:59:25.072Z,21.70
2018-08-03T04:04:19.573Z,21.70
2018-08-03T04:09:14.341Z,21.70
2018-08-03T04:14:09.053Z,21.70
2018-08-03T04:19:03.535Z,21.70
2018-08-03T04:23:58.192Z,21.70
2018-08-03T04:28:52.778Z,21.70
2018-08-03T04:33:47.841Z,21.80
2018-08-03T04:38:42.676Z,21.90
2018-08-03T04:43:37.503Z,21.90
2018-08-03T04:48:32.337Z,22.00
2018-08-03T04:53:27.720Z,22.20
2018-08-03T04:58:22.243Z,22.30
2018-08-03T05:03:16.796Z,22.50
2018-08-03T05:08:11.405Z,22.60
2018-08-03T05:13:05.982Z,22.80
2018-08-03T05:18:00.520Z,23.00
2018-08-03T05:22:55.297Z,23.20
2018-08-03T05:27:49.971Z,23.40
2018-08-03T05:32:44.484Z,23.60
2018-08-03T05:37:39.091Z,23.90
2018-08-03T05:42:33.692Z,24.40
2018-08-03T05:47:28.362Z,26.70
2018-08-03T05:52:23.195Z,29.30
2018-08-03T05:57:18.449Z,31.70
2018-08-03T06:02:14.378Z,33.70
2018-08-03T06:07:09.887Z,35.20
2018-08-03T06:12:05.311Z,36.60
2018-08-03T06:17:07.042Z,37.70
2018-08-03T06:22:01.964Z,38.60
2018-08-03T06:26:56.767Z,40.10
2018-08-03T06:31:53.758Z,41.40
2018-08-03T06:36:48.565Z,42.20
2018-08-03T06:41:43.708Z,43.20
2018-08-03T06:46:39.766Z,44.10
2018-08-03T06:51:34.566Z,45.10
2018-08-03T06:56:29.804Z,45.90
2018-08-03T07:01:24.912Z,46.90
2018-08-03T07:06:21.758Z,47.40
2018-08-03T07:11:16.607Z,48.10
2018-08-03T07:16:15.687Z,48.50
2018-08-03T07:21:12.481Z,48.80
2018-08-03T07:26:07.536Z,48.90
2018-08-03T07:31:02.453Z,50.20
2018-08-03T07:35:58.036Z,51.10
2018-08-03T07:40:53.760Z,52.40
2018-08-03T07:45:49.099Z,53.20
2018-08-03T07:50:43.977Z,54.10
2018-08-03T07:55:38.704Z,54.70
2018-08-03T08:00:33.492Z,55.90
2018-08-03T08:05:28.474Z,56.20
2018-08-03T08:10:23.267Z,56.50
2018-08-03T08:15:18.063Z,56.40
2018-08-03T08:20:13.501Z,56.90
2018-08-03T08:25:08.672Z,57.30
2018-08-03T08:30:03.404Z,57.80
2018-08-03T08:34:58.270Z,58.60
2018-08-03T08:39:53.646Z,59.70
2018-08-03T08:44:48.462Z,60.80
2018-08-03T08:49:43.388Z,61.10
2018-08-03T08:54:38.148Z,61.50
2018-08-03T08:59:33.111Z,61.40
2018-08-03T09:04:28.097Z,61.60
2018-08-03T09:09:22.974Z,60.70
2018-08-03T09:14:17.799Z,60.40
2018-08-03T09:19:12.955Z,61.60
2018-08-03T09:24:07.710Z,61.60
2018-08-03T09:29:02.440Z,60.70
2018-08-03T09:33:57.262Z,61.90
2018-08-03T09:38:52.196Z,61.50
2018-08-03T09:43:47.272Z,60.30
2018-08-03T09:48:42.146Z,60.00
2018-08-03T09:53:37.003Z,58.70
2018-08-03T09:58:31.857Z,57.60
2018-08-03T10:03:26.648Z,53.40
2018-08-03T10:08:21.601Z,49.50
2018-08-03T10:13:17.098Z,45.50
2018-08-03T10:18:12.298Z,42.20
2018-08-03T10:23:07.281Z,39.70
2018-08-03T10:28:02.034Z,38.00
2018-08-03T10:32:57.006Z,37.00
2018-08-03T10:37:52.406Z,36.50
2018-08-03T10:42:47.222Z,35.60
2018-08-03T10:47:42.316Z,34.90
2018-08-03T10:52:37.052Z,35.10
2018-08-03T10:57:32.156Z,35.00
2018-08-03T11:02:27.130Z,34.70
2018-08-03T11:07:22.194Z,34.30
2018-08-03T11:12:17.051Z,34.40
2018-08-03T11:17:12.361Z,34.50
2018-08-03T11:22:07.301Z,34.40
2018-08-03T11:27:02.102Z,34.40
2018-08-03T11:31:56.960Z,34.50
2018-08-03T11:36:51.701Z,34.40
2018-08-03T11:41:46.453Z,34.50
2018-08-03T11:46:41.327Z,34.70
2018-08-03T11:51:36.159Z,34.80
2018-08-03T11:56:30.977Z,34.80
2018-08-03T12:01:25.899Z,34.80
2018-08-03T12:06:20.705Z,34.90
2018-08-03T12:11:15.573Z,35.00
2018-08-03T12:16:10.490Z,35.10
2018-08-03T12:21:05.325Z,35.10
2018-08-03T12:26:00.421Z,35.10
2018-08-03T12:30:55.344Z,35.10
2018-08-03T12:35:50.114Z,35.00
2018-08-03T12:40:45.041Z,34.70
2018-08-03T12:45:39.842Z,34.70
2018-08-03T12:50:34.593Z,34.70
2018-08-03T12:55:30.388Z,34.80
2018-08-03T13:00:25.161Z,35.00
2018-08-03T13:05:19.947Z,35.10
2018-08-03T13:10:14.699Z,35.30
2018-08-03T13:15:10.085Z,35.40
2018-08-03T13:20:05.126Z,35.60
2018-08-03T13:25:00.055Z,35.60
2018-08-03T13:29:54.824Z,35.60
2018-08-03T13:34:49.602Z,35.50
2018-08-03T13:39:44.360Z,35.60
2018-08-03T13:44:39.403Z,35.60
2018-08-03T13:49:34.358Z,35.60
2018-08-03T13:54:29.254Z,35.50
2018-08-03T13:59:24.370Z,35.50
2018-08-03T14:04:19.238Z,35.30
2018-08-03T14:09:14.309Z,35.40
2018-08-03T14:14:09.657Z,35.60
2018-08-03T14:19:04.430Z,35.90
2018-08-03T14:23:59.233Z,36.10
2018-08-03T14:28:54.053Z,36.20
2018-08-03T14:33:48.829Z,36.40
2018-08-03T14:38:43.910Z,36.50
2018-08-03T14:43:38.928Z,36.60
2018-08-03T14:48:33.728Z,37.00
2018-08-03T14:53:29.558Z,37.20
2018-08-03T14:58:25.586Z,37.30
2018-08-03T15:03:21.527Z,37.50
2018-08-03T15:08:17.880Z,37.60
2018-08-03T15:13:14.022Z,37.60
2018-08-03T15:18:13.232Z,37.10
2018-08-03T15:23:09.920Z,36.70
2018-08-03T15:28:05.832Z,36.30
2018-08-03T15:33:05.678Z,36.10
2018-08-03T15:38:01.918Z,35.80
2018-08-03T15:42:58.161Z,35.60
2018-08-03T15:47:53.892Z,35.70
2018-08-03T15:52:49.286Z,35.80
2018-08-03T15:57:44.510Z,35.70
2018-08-03T16:02:39.271Z,35.40
2018-08-03T16:07:34.194Z,35.40
2018-08-03T16:12:28.954Z,35.40
2018-08-03T16:17:23.758Z,35.40
2018-08-03T16:22:18.526Z,35.30
2018-08-03T16:27:13.298Z,35.10
2018-08-03T16:32:08.552Z,34.90
2018-08-03T16:37:03.731Z,34.90
2018-08-03T16:41:58.751Z,34.70
2018-08-03T16:46:54.000Z,34.70
2018-08-03T16:51:48.760Z,34.70
2018-08-03T16:56:43.520Z,34.60
2018-08-03T17:01:38.309Z,34.50
2018-08-03T17:06:33.714Z,34.40
2018-08-03T17:11:28.595Z,34.30
2018-08-03T17:16:23.416Z,34.20
2018-08-03T17:21:18.574Z,34.10
2018-08-03T17:26:15.647Z,34.00
2018-08-03T17:31:10.398Z,33.80
2018-08-03T17:36:05.870Z,33.70
2018-08-03T17:41:01.441Z,33.60
2018-08-03T17:45:56.629Z,33.50
2018-08-03T17:50:51.377Z,33.40
2018-08-03T17:55:46.713Z,33.30
2018-08-03T18:00:41.553Z,33.20
2018-08-03T18:05:37.195Z,33.00
2018-08-03T18:10:32.002Z,32.90
2018-08-03T18:15:27.476Z,32.80
2018-08-03T18:20:22.338Z,32.70
2018-08-03T18:25:17.580Z,32.50
2018-08-03T18:30:13.796Z,32.40
2018-08-03T18:35:09.160Z,32.30
2018-08-03T18:40:04.476Z,32.20
2018-08-03T18:45:00.326Z,32.00
2018-08-03T18:49:55.293Z,31.90
2018-08-03T18:54:50.858Z,31.70
2018-08-03T18:59:45.724Z,31.60
2018-08-03T19:04:41.132Z,31.50
2018-08-03T19:09:35.930Z,31.30
2018-08-03T19:14:31.434Z,31.20
2018-08-03T19:19:26.552Z,31.00
2018-08-03T19:24:22.184Z,30.90
2018-08-03T19:29:16.958Z,30.70
2018-08-03T19:34:11.739Z,30.60
2018-08-03T19:39:10.292Z,30.40
2018-08-03T19:44:05.351Z,30.30
2018-08-03T19:49:00.083Z,30.20
2018-08-03T19:53:54.838Z,30.00
2018-08-03T19:58:50.140Z,29.90
2018-08-03T20:03:45.064Z,29.90
2018-08-03T20:08:40.170Z,29.70
2018-08-03T20:13:34.928Z,29.60
2018-08-03T20:18:30.027Z,29.60
2018-08-03T20:23:24.946Z,29.50
2018-08-03T20:28:19.759Z,29.50
2018-08-03T20:33:14.748Z,29.40
2018-08-03T20:38:09.488Z,29.30
2018-08-03T20:43:04.285Z,29.30
2018-08-03T20:47:59.525Z,29.20
2018-08-03T20:52:54.305Z,29.20
2018-08-03T20:57:49.128Z,29.10
2018-08-03T21:02:43.874Z,29.00
2018-08-03T21:07:38.942Z,28.90
2018-08-03T21:12:33.939Z,28.80
2018-08-03T21:17:30.748Z,28.80
2018-08-03T21:22:25.611Z,28.70
2018-08-03T21:27:26.949Z,28.70
2018-08-03T21:32:21.937Z,28.60
2018-08-03T21:37:16.705Z,28.50
2018-08-03T21:42:11.521Z,28.40
2018-08-03T21:47:06.301Z,28.40
2018-08-03T21:52:01.269Z,28.40
2018-08-03T21:56:56.048Z,28.30
2018-08-03T22:01:51.376Z,28.30
2018-08-03T22:06:46.173Z,28.20
2018-08-03T22:11:41.050Z,28.20
2018-08-03T22:16:35.830Z,28.10
2018-08-03T22:21:30.609Z,28.00
2018-08-03T22:26:25.343Z,27.90
2018-08-03T22:31:20.400Z,27.90
2018-08-03T22:36:15.136Z,27.80
2018-08-03T22:41:10.736Z,27.80
2018-08-03T22:46:05.506Z,27.70
2018-08-03T22:51:00.799Z,27.60
2018-08-03T22:55:56.547Z,27.50
2018-08-03T23:00:51.344Z,27.40
2018-08-03T23:05:46.135Z,27.20
2018-08-03T23:10:40.928Z,27.10
2018-08-03T23:15:35.794Z,27.00
2018-08-03T23:20:30.307Z,26.90
2018-08-03T23:25:24.774Z,26.80
2018-08-03T23:30:19.713Z,26.80
2018-08-03T23:35:14.187Z,26.70
2018-08-03T23:40:08.746Z,26.70
2018-08-03T23:45:03.656Z,26.80
2018-08-03T23:49:58.274Z,26.80
2018-08-03T23:54:53.142Z,26.90
2018-08-03T23:59:47.659Z,26.90
